sensor_id;sensor_type;location;lat;lon;timestamp;noise_LAeq;noise_LA_min;noise_LA_max;noise_LA01;noise_LA95
64545;Laerm;50936;51.660;5.616;2023-07-31T00:00:14;39.67;35.36;42.85;;
64545;Laerm;50936;51.660;5.616;2023-07-31T00:02:41;40.06;35.94;43.90;;
64545;Laerm;50936;51.660;5.616;2023-07-31T00:05:09;40.02;36.20;43.77;;
64545;Laerm;50936;51.660;5.616;2023-07-31T00:07:36;41.01;35.04;52.06;;
64545;Laerm;50936;51.660;5.616;2023-07-31T00:10:03;39.83;35.36;42.29;;
64545;Laerm;50936;51.660;5.616;2023-07-31T00:12:30;40.05;35.66;46.87;;
64545;Laerm;50936;51.660;5.616;2023-07-31T00:14:57;40.02;35.66;44.47;;
64545;Laerm;50936;51.660;5.616;2023-07-31T00:17:24;39.96;35.36;42.47;;
64545;Laerm;50936;51.660;5.616;2023-07-31T00:19:51;39.99;36.45;42.65;;
64545;Laerm;50936;51.660;5.616;2023-07-31T00:22:18;39.98;36.20;44.51;;
64545;Laerm;50936;51.660;5.616;2023-07-31T00:24:45;39.92;36.20;45.07;;
64545;Laerm;50936;51.660;5.616;2023-07-31T00:27:12;39.60;35.94;43.44;;
64545;Laerm;50936;51.660;5.616;2023-07-31T00:29:39;39.58;35.36;42.35;;
64545;Laerm;50936;51.660;5.616;2023-07-31T00:32:06;39.56;33.90;45.91;;
64545;Laerm;50936;51.660;5.616;2023-07-31T00:34:34;37.67;32.35;44.15;;
64545;Laerm;50936;51.660;5.616;2023-07-31T00:37:02;37.92;32.93;45.14;;
64545;Laerm;50936;51.660;5.616;2023-07-31T00:39:30;37.74;32.35;47.88;;
64545;Laerm;50936;51.660;5.616;2023-07-31T00:41:59;37.70;32.93;41.33;;
64545;Laerm;50936;51.660;5.616;2023-07-31T00:44:26;37.78;32.93;40.98;;
64545;Laerm;50936;51.660;5.616;2023-07-31T00:46:54;37.84;32.93;42.09;;
64545;Laerm;50936;51.660;5.616;2023-07-31T00:49:23;37.85;32.93;47.65;;
64545;Laerm;50936;51.660;5.616;2023-07-31T00:51:50;37.71;33.44;40.23;;
64545;Laerm;50936;51.660;5.616;2023-07-31T00:54:17;37.75;33.44;45.91;;
64545;Laerm;50936;51.660;5.616;2023-07-31T00:56:47;38.34;33.09;45.63;;
64545;Laerm;50936;51.660;5.616;2023-07-31T00:59:15;37.96;33.44;43.04;;
64545;Laerm;50936;51.660;5.616;2023-07-31T01:01:42;37.70;32.93;43.04;;
64545;Laerm;50936;51.660;5.616;2023-07-31T01:04:09;37.86;33.44;45.04;;
64545;Laerm;50936;51.660;5.616;2023-07-31T01:09:30;37.50;32.35;40.13;;
64545;Laerm;50936;51.660;5.616;2023-07-31T01:12:03;37.54;32.93;40.43;;
64545;Laerm;50936;51.660;5.616;2023-07-31T01:14:30;37.61;33.44;40.98;;
64545;Laerm;50936;51.660;5.616;2023-07-31T01:16:57;37.81;30.54;42.53;;
64545;Laerm;50936;51.660;5.616;2023-07-31T01:19:26;37.63;32.93;42.98;;
64545;Laerm;50936;51.660;5.616;2023-07-31T01:28:50;39.56;35.01;44.80;;
64545;Laerm;50936;51.660;5.616;2023-07-31T01:31:24;39.32;33.90;42.41;;
64545;Laerm;50936;51.660;5.616;2023-07-31T01:33:56;39.08;34.31;42.82;;
64545;Laerm;50936;51.660;5.616;2023-07-31T01:36:23;38.94;34.31;43.09;;
64545;Laerm;50936;51.660;5.616;2023-07-31T01:38:50;39.06;33.90;42.29;;
64545;Laerm;50936;51.660;5.616;2023-07-31T01:41:18;37.64;32.93;40.62;;
64545;Laerm;50936;51.660;5.616;2023-07-31T01:43:46;37.77;32.35;42.76;;
64545;Laerm;50936;51.660;5.616;2023-07-31T01:46:13;37.68;32.93;40.53;;
64545;Laerm;50936;51.660;5.616;2023-07-31T01:48:40;38.13;33.90;45.04;;
64545;Laerm;50936;51.660;5.616;2023-07-31T01:51:07;37.96;32.35;47.50;;
64545;Laerm;50936;51.660;5.616;2023-07-31T01:53:35;37.67;32.93;40.98;;
64545;Laerm;50936;51.660;5.616;2023-07-31T01:56:02;37.82;33.44;40.80;;
64545;Laerm;50936;51.660;5.616;2023-07-31T01:58:30;37.85;33.44;43.58;;
64545;Laerm;50936;51.660;5.616;2023-07-31T02:00:56;37.86;33.44;41.75;;
64545;Laerm;50936;51.660;5.616;2023-07-31T02:03:23;37.92;30.89;42.71;;
64545;Laerm;50936;51.660;5.616;2023-07-31T02:05:54;38.78;32.93;46.20;;
64545;Laerm;50936;51.660;5.616;2023-07-31T02:08:21;39.61;34.69;42.47;;
64545;Laerm;50936;51.660;5.616;2023-07-31T02:10:48;39.63;35.36;42.29;;
64545;Laerm;50936;51.660;5.616;2023-07-31T02:13:15;40.10;35.66;44.87;;
64545;Laerm;50936;51.660;5.616;2023-07-31T02:15:42;40.04;33.44;43.77;;
64545;Laerm;50936;51.660;5.616;2023-07-31T02:18:10;40.01;35.94;48.51;;
64545;Laerm;50936;51.660;5.616;2023-07-31T02:20:37;39.87;35.94;42.53;;
64545;Laerm;50936;51.660;5.616;2023-07-31T02:23:04;39.81;35.66;42.35;;
64545;Laerm;50936;51.660;5.616;2023-07-31T02:25:30;40.04;34.31;43.44;;
64545;Laerm;50936;51.660;5.616;2023-07-31T02:27:57;39.95;35.94;42.35;;
64545;Laerm;50936;51.660;5.616;2023-07-31T02:30:25;39.93;35.36;42.64;;
64545;Laerm;50936;51.660;5.616;2023-07-31T02:32:52;39.91;35.36;45.39;;
64545;Laerm;50936;51.660;5.616;2023-07-31T02:35:19;39.62;35.36;42.29;;
64545;Laerm;50936;51.660;5.616;2023-07-31T02:37:45;39.00;32.35;42.82;;
64545;Laerm;50936;51.660;5.616;2023-07-31T02:40:13;37.72;32.35;40.71;;
64545;Laerm;50936;51.660;5.616;2023-07-31T02:42:40;37.81;32.93;40.43;;
64545;Laerm;50936;51.660;5.616;2023-07-31T02:45:07;38.10;32.35;41.96;;
64545;Laerm;50936;51.660;5.616;2023-07-31T02:47:34;38.33;33.09;43.68;;
64545;Laerm;50936;51.660;5.616;2023-07-31T02:50:03;37.88;33.44;43.19;;
64545;Laerm;50936;51.660;5.616;2023-07-31T02:52:30;38.41;32.35;42.41;;
64545;Laerm;50936;51.660;5.616;2023-07-31T02:54:58;37.89;32.35;40.89;;
64545;Laerm;50936;51.660;5.616;2023-07-31T02:57:25;37.74;32.35;40.33;;
64545;Laerm;50936;51.660;5.616;2023-07-31T02:59:52;37.87;33.44;40.89;;
64545;Laerm;50936;51.660;5.616;2023-07-31T03:02:19;37.95;33.44;41.96;;
64545;Laerm;50936;51.660;5.616;2023-07-31T03:04:46;38.23;32.93;41.89;;
64545;Laerm;50936;51.660;5.616;2023-07-31T03:07:14;38.39;32.35;43.49;;
64545;Laerm;50936;51.660;5.616;2023-07-31T03:09:40;37.93;33.44;40.62;;
64545;Laerm;50936;51.660;5.616;2023-07-31T03:12:08;38.03;32.93;42.22;;
64545;Laerm;50936;51.660;5.616;2023-07-31T03:14:35;37.92;32.35;42.47;;
64545;Laerm;50936;51.660;5.616;2023-07-31T03:17:03;38.13;32.35;42.53;;
64545;Laerm;50936;51.660;5.616;2023-07-31T03:19:31;38.77;33.55;42.98;;
64545;Laerm;50936;51.660;5.616;2023-07-31T03:21:59;39.64;35.66;42.65;;
64545;Laerm;50936;51.660;5.616;2023-07-31T03:24:28;39.81;35.36;42.42;;
64545;Laerm;50936;51.660;5.616;2023-07-31T03:26:56;39.70;35.66;42.53;;
64545;Laerm;50936;51.660;5.616;2023-07-31T03:29:23;39.42;34.69;42.93;;
64545;Laerm;50936;51.660;5.616;2023-07-31T03:31:51;39.25;35.04;42.47;;
64545;Laerm;50936;51.660;5.616;2023-07-31T03:34:19;39.33;35.04;43.19;;
64545;Laerm;50936;51.660;5.616;2023-07-31T03:36:45;39.43;35.04;44.73;;
64545;Laerm;50936;51.660;5.616;2023-07-31T03:39:12;39.09;33.90;46.05;;
64545;Laerm;50936;51.660;5.616;2023-07-31T03:41:39;38.28;33.44;43.09;;
64545;Laerm;50936;51.660;5.616;2023-07-31T03:44:06;38.12;32.93;42.90;;
64545;Laerm;50936;51.660;5.616;2023-07-31T03:46:34;38.26;32.93;45.23;;
64545;Laerm;50936;51.660;5.616;2023-07-31T03:49:03;38.10;32.93;43.64;;
64545;Laerm;50936;51.660;5.616;2023-07-31T03:51:30;38.18;33.44;41.89;;
64545;Laerm;50936;51.660;5.616;2023-07-31T03:53:57;38.67;33.44;42.03;;
64545;Laerm;50936;51.660;5.616;2023-07-31T03:56:24;37.99;33.55;42.16;;
64545;Laerm;50936;51.660;5.616;2023-07-31T03:58:51;37.93;32.93;53.00;;
64545;Laerm;50936;51.660;5.616;2023-07-31T04:01:18;38.39;33.44;42.93;;
64545;Laerm;50936;51.660;5.616;2023-07-31T04:03:48;38.88;33.44;43.54;;
64545;Laerm;50936;51.660;5.616;2023-07-31T04:06:15;38.50;32.93;42.47;;
64545;Laerm;50936;51.660;5.616;2023-07-31T04:08:44;39.04;33.90;43.72;;
64545;Laerm;50936;51.660;5.616;2023-07-31T04:11:12;39.34;33.90;43.44;;
64545;Laerm;50936;51.660;5.616;2023-07-31T04:13:39;38.31;32.35;42.82;;
64545;Laerm;50936;51.660;5.616;2023-07-31T04:16:06;38.92;34.69;42.41;;
64545;Laerm;50936;51.660;5.616;2023-07-31T04:18:33;39.53;33.90;45.33;;
64545;Laerm;50936;51.660;5.616;2023-07-31T04:21:00;39.77;34.69;44.31;;
64545;Laerm;50936;51.660;5.616;2023-07-31T04:23:28;39.29;32.93;43.68;;
64545;Laerm;50936;51.660;5.616;2023-07-31T04:25:55;39.81;33.90;43.99;;
64545;Laerm;50936;51.660;5.616;2023-07-31T04:28:22;39.70;35.04;43.86;;
64545;Laerm;50936;51.660;5.616;2023-07-31T04:30:50;40.67;36.20;45.11;;
64545;Laerm;50936;51.660;5.616;2023-07-31T04:33:17;40.39;36.20;44.23;;
64545;Laerm;50936;51.660;5.616;2023-07-31T04:35:51;40.54;36.20;44.94;;
64545;Laerm;50936;51.660;5.616;2023-07-31T04:38:20;40.46;35.94;44.76;;
64545;Laerm;50936;51.660;5.616;2023-07-31T04:40:48;40.14;35.36;43.39;;
64545;Laerm;50936;51.660;5.616;2023-07-31T04:43:15;40.31;36.69;42.71;;
64545;Laerm;50936;51.660;5.616;2023-07-31T04:45:45;40.17;34.69;43.14;;
64545;Laerm;50936;51.660;5.616;2023-07-31T04:48:14;40.12;36.20;43.19;;
64545;Laerm;50936;51.660;5.616;2023-07-31T04:50:42;40.16;35.94;43.24;;
64545;Laerm;50936;51.660;5.616;2023-07-31T04:53:09;40.97;34.31;62.58;;
64545;Laerm;50936;51.660;5.616;2023-07-31T04:55:35;41.87;36.69;59.95;;
64545;Laerm;50936;51.660;5.616;2023-07-31T04:58:02;41.71;36.45;62.18;;
64545;Laerm;50936;51.660;5.616;2023-07-31T05:00:29;43.73;36.91;61.21;;
64545;Laerm;50936;51.660;5.616;2023-07-31T05:02:56;43.74;37.52;65.68;;
64545;Laerm;50936;51.660;5.616;2023-07-31T05:05:23;40.93;35.94;58.73;;
64545;Laerm;50936;51.660;5.616;2023-07-31T05:07:50;41.01;36.69;60.52;;
64545;Laerm;50936;51.660;5.616;2023-07-31T05:10:17;43.28;36.45;67.19;;
64545;Laerm;50936;51.660;5.616;2023-07-31T05:12:44;41.36;36.45;59.17;;
64545;Laerm;50936;51.660;5.616;2023-07-31T05:15:11;41.48;36.20;60.46;;
64545;Laerm;50936;51.660;5.616;2023-07-31T05:17:38;43.98;35.66;69.11;;
64545;Laerm;50936;51.660;5.616;2023-07-31T05:20:06;40.84;36.20;52.34;;
64545;Laerm;50936;51.660;5.616;2023-07-31T05:22:33;42.40;35.04;62.37;;
64545;Laerm;50936;51.660;5.616;2023-07-31T05:25:00;42.75;34.69;62.29;;
64545;Laerm;50936;51.660;5.616;2023-07-31T05:27:27;45.02;36.69;64.97;;
64545;Laerm;50936;51.660;5.616;2023-07-31T05:29:54;42.04;34.69;68.07;;
64545;Laerm;50936;51.660;5.616;2023-07-31T05:32:22;45.76;36.45;61.53;;
64545;Laerm;50936;51.660;5.616;2023-07-31T05:34:51;51.91;36.91;69.36;;
64545;Laerm;50936;51.660;5.616;2023-07-31T05:37:19;50.69;38.18;63.18;;
64545;Laerm;50936;51.660;5.616;2023-07-31T05:39:46;51.04;37.12;67.33;;
64545;Laerm;50936;51.660;5.616;2023-07-31T05:42:13;53.12;37.88;71.69;;
64545;Laerm;50936;51.660;5.616;2023-07-31T05:44:40;51.37;38.52;71.51;;
64545;Laerm;50936;51.660;5.616;2023-07-31T05:47:07;53.10;37.88;71.31;;
64545;Laerm;50936;51.660;5.616;2023-07-31T05:49:34;54.76;38.95;69.58;;
64545;Laerm;50936;51.660;5.616;2023-07-31T05:52:01;50.62;39.21;61.41;;
64545;Laerm;50936;51.660;5.616;2023-07-31T05:54:28;51.87;38.67;71.96;;
64545;Laerm;50936;51.660;5.616;2023-07-31T05:56:55;56.00;39.68;85.78;;
64545;Laerm;50936;51.660;5.616;2023-07-31T05:59:22;54.47;42.47;79.93;;
64545;Laerm;50936;51.660;5.616;2023-07-31T06:01:49;52.59;42.16;71.64;;
64545;Laerm;50936;51.660;5.616;2023-07-31T06:04:16;52.09;43.49;73.11;;
64545;Laerm;50936;51.660;5.616;2023-07-31T06:06:43;53.11;42.03;78.27;;
64545;Laerm;50936;51.660;5.616;2023-07-31T06:09:10;54.65;40.23;77.47;;
64545;Laerm;50936;51.660;5.616;2023-07-31T06:11:37;52.78;41.30;75.20;;
64545;Laerm;50936;51.660;5.616;2023-07-31T06:14:04;56.91;41.22;86.17;;
64545;Laerm;50936;51.660;5.616;2023-07-31T06:16:30;55.04;40.98;82.78;;
64545;Laerm;50936;51.660;5.616;2023-07-31T06:18:58;54.97;39.70;74.35;;
64545;Laerm;50936;51.660;5.616;2023-07-31T06:21:25;55.76;38.52;74.63;;
64545;Laerm;50936;51.660;5.616;2023-07-31T06:23:51;59.04;42.76;78.67;;
64545;Laerm;50936;51.660;5.616;2023-07-31T06:26:19;55.79;40.71;77.08;;
64545;Laerm;50936;51.660;5.616;2023-07-31T06:28:45;54.78;41.30;66.90;;
64545;Laerm;50936;51.660;5.616;2023-07-31T06:31:13;54.00;45.27;61.59;;
64545;Laerm;50936;51.660;5.616;2023-07-31T06:33:40;55.30;41.22;65.01;;
64545;Laerm;50936;51.660;5.616;2023-07-31T06:36:07;62.71;41.46;80.76;;
64545;Laerm;50936;51.660;5.616;2023-07-31T06:38:34;56.38;42.30;76.04;;
64545;Laerm;50936;51.660;5.616;2023-07-31T06:41:01;62.16;42.41;79.83;;
64545;Laerm;50936;51.660;5.616;2023-07-31T06:43:28;56.53;41.14;77.86;;
64545;Laerm;50936;51.660;5.616;2023-07-31T06:45:55;55.89;41.22;71.08;;
64545;Laerm;50936;51.660;5.616;2023-07-31T06:48:22;58.56;45.89;88.22;;
64545;Laerm;50936;51.660;5.616;2023-07-31T06:50:49;56.77;45.07;81.87;;
64545;Laerm;50936;51.660;5.616;2023-07-31T06:53:16;56.81;40.80;70.96;;
64545;Laerm;50936;51.660;5.616;2023-07-31T06:55:43;57.16;42.53;72.11;;
64545;Laerm;50936;51.660;5.616;2023-07-31T06:58:10;55.56;44.23;62.73;;
64545;Laerm;50936;51.660;5.616;2023-07-31T07:00:37;55.33;39.46;65.94;;
64545;Laerm;50936;51.660;5.616;2023-07-31T07:03:04;59.26;40.13;86.20;;
64545;Laerm;50936;51.660;5.616;2023-07-31T07:05:31;57.66;39.78;79.61;;
64545;Laerm;50936;51.660;5.616;2023-07-31T07:07:58;56.04;40.33;72.42;;
64545;Laerm;50936;51.660;5.616;2023-07-31T07:10:24;55.61;47.24;71.35;;
64545;Laerm;50936;51.660;5.616;2023-07-31T07:12:53;54.86;42.29;68.73;;
64545;Laerm;50936;51.660;5.616;2023-07-31T07:15:22;56.04;42.30;77.87;;
64545;Laerm;50936;51.660;5.616;2023-07-31T07:17:49;64.98;42.29;85.68;;
64545;Laerm;50936;51.660;5.616;2023-07-31T07:20:16;59.86;46.55;81.95;;
64545;Laerm;50936;51.660;5.616;2023-07-31T07:22:43;56.93;41.75;70.29;;
64545;Laerm;50936;51.660;5.616;2023-07-31T07:25:10;57.51;41.89;75.68;;
64545;Laerm;50936;51.660;5.616;2023-07-31T07:27:37;62.89;42.98;80.03;;
64545;Laerm;50936;51.660;5.616;2023-07-31T07:30:04;60.78;38.52;79.35;;
64545;Laerm;50936;51.660;5.616;2023-07-31T07:32:31;44.13;38.05;65.46;;
64545;Laerm;50936;51.660;5.616;2023-07-31T07:34:59;41.05;36.91;44.73;;
64545;Laerm;50936;51.660;5.616;2023-07-31T07:37:26;41.25;38.21;43.68;;
64545;Laerm;50936;51.660;5.616;2023-07-31T07:39:52;41.10;36.69;44.69;;
64545;Laerm;50936;51.660;5.616;2023-07-31T07:42:19;41.16;37.32;43.54;;
64545;Laerm;50936;51.660;5.616;2023-07-31T07:44:46;41.00;37.52;43.77;;
64545;Laerm;50936;51.660;5.616;2023-07-31T07:47:13;41.13;37.12;46.25;;
64545;Laerm;50936;51.660;5.616;2023-07-31T07:49:40;41.30;36.69;44.69;;
64545;Laerm;50936;51.660;5.616;2023-07-31T07:52:07;41.41;38.21;43.99;;
64545;Laerm;50936;51.660;5.616;2023-07-31T07:54:34;41.47;37.70;46.28;;
64545;Laerm;50936;51.660;5.616;2023-07-31T07:57:01;41.60;37.52;45.45;;
64545;Laerm;50936;51.660;5.616;2023-07-31T07:59:28;41.17;38.05;45.45;;
64545;Laerm;50936;51.660;5.616;2023-07-31T08:01:55;41.55;36.91;45.48;;
64545;Laerm;50936;51.660;5.616;2023-07-31T08:04:22;41.39;37.12;51.13;;
64545;Laerm;50936;51.660;5.616;2023-07-31T08:06:49;41.42;37.70;44.23;;
64545;Laerm;50936;51.660;5.616;2023-07-31T08:09:16;41.11;37.32;44.11;;
64545;Laerm;50936;51.660;5.616;2023-07-31T08:11:43;41.77;37.70;47.83;;
64545;Laerm;50936;51.660;5.616;2023-07-31T08:14:10;43.69;38.52;53.86;;
64545;Laerm;50936;51.660;5.616;2023-07-31T08:16:37;40.94;37.12;48.19;;
64545;Laerm;50936;51.660;5.616;2023-07-31T08:19:04;40.39;36.20;47.96;;
64545;Laerm;50936;51.660;5.616;2023-07-31T08:21:32;41.08;37.52;46.89;;
64545;Laerm;50936;51.660;5.616;2023-07-31T08:23:59;41.81;37.88;47.36;;
64545;Laerm;50936;51.660;5.616;2023-07-31T08:26:25;41.59;37.52;44.83;;
64545;Laerm;50936;51.660;5.616;2023-07-31T08:28:53;41.40;37.52;45.54;;
64545;Laerm;50936;51.660;5.616;2023-07-31T08:31:20;41.56;37.88;45.51;;
64545;Laerm;50936;51.660;5.616;2023-07-31T08:33:47;40.63;37.12;47.32;;
64545;Laerm;50936;51.660;5.616;2023-07-31T08:36:14;40.99;37.52;45.51;;
64545;Laerm;50936;51.660;5.616;2023-07-31T08:38:40;40.88;37.70;43.99;;
64545;Laerm;50936;51.660;5.616;2023-07-31T08:41:07;41.02;37.12;44.90;;
64545;Laerm;50936;51.660;5.616;2023-07-31T08:43:36;41.43;35.04;47.57;;
64545;Laerm;50936;51.660;5.616;2023-07-31T08:46:05;42.45;37.70;49.47;;
64545;Laerm;50936;51.660;5.616;2023-07-31T08:48:32;41.63;37.70;45.39;;
64545;Laerm;50936;51.660;5.616;2023-07-31T08:51:00;41.93;37.87;48.61;;
64545;Laerm;50936;51.660;5.616;2023-07-31T08:53:27;41.80;37.70;46.80;;
64545;Laerm;50936;51.660;5.616;2023-07-31T08:55:56;42.68;38.05;56.87;;
64545;Laerm;50936;51.660;5.616;2023-07-31T08:58:30;42.10;35.36;48.49;;
64545;Laerm;50936;51.660;5.616;2023-07-31T09:01:03;42.46;38.52;48.70;;
64545;Laerm;50936;51.660;5.616;2023-07-31T09:03:34;41.87;37.88;45.36;;
64545;Laerm;50936;51.660;5.616;2023-07-31T09:06:03;41.55;37.52;49.83;;
64545;Laerm;50936;51.660;5.616;2023-07-31T09:08:33;40.88;35.94;43.86;;
64545;Laerm;50936;51.660;5.616;2023-07-31T09:11:01;41.55;37.88;49.36;;
64545;Laerm;50936;51.660;5.616;2023-07-31T09:13:32;41.38;36.69;43.86;;
64545;Laerm;50936;51.660;5.616;2023-07-31T09:15:59;41.49;37.70;44.07;;
64545;Laerm;50936;51.660;5.616;2023-07-31T09:18:26;43.07;39.21;50.27;;
64545;Laerm;50936;51.660;5.616;2023-07-31T09:21:04;42.05;38.37;46.82;;
64545;Laerm;50936;51.660;5.616;2023-07-31T09:24:01;43.01;37.88;51.35;;
64545;Laerm;50936;51.660;5.616;2023-07-31T09:26:34;44.08;37.70;51.27;;
64545;Laerm;50936;51.660;5.616;2023-07-31T09:29:05;44.41;38.37;52.78;;
64545;Laerm;50936;51.660;5.616;2023-07-31T09:31:40;42.05;37.70;45.27;;
64545;Laerm;50936;51.660;5.616;2023-07-31T09:34:08;43.71;38.37;60.90;;
64545;Laerm;50936;51.660;5.616;2023-07-31T09:36:54;41.05;36.69;45.54;;
64545;Laerm;50936;51.660;5.616;2023-07-31T09:39:21;41.07;37.52;44.90;;
64545;Laerm;50936;51.660;5.616;2023-07-31T09:41:55;41.06;37.32;45.69;;
64545;Laerm;50936;51.660;5.616;2023-07-31T09:44:38;41.84;38.05;47.12;;
64545;Laerm;50936;51.660;5.616;2023-07-31T09:47:06;40.94;36.91;45.11;;
64545;Laerm;50936;51.660;5.616;2023-07-31T09:49:33;41.02;37.12;44.73;;
64545;Laerm;50936;51.660;5.616;2023-07-31T09:52:00;40.97;37.52;47.04;;
64545;Laerm;50936;51.660;5.616;2023-07-31T09:54:27;41.93;38.05;46.89;;
64545;Laerm;50936;51.660;5.616;2023-07-31T09:56:57;41.58;38.21;44.16;;
64545;Laerm;50936;51.660;5.616;2023-07-31T09:59:25;41.63;37.88;44.11;;
64545;Laerm;50936;51.660;5.616;2023-07-31T10:01:56;41.26;37.88;45.54;;
64545;Laerm;50936;51.660;5.616;2023-07-31T10:04:27;41.44;37.52;44.62;;
64545;Laerm;50936;51.660;5.616;2023-07-31T10:06:55;41.64;38.21;44.62;;
64545;Laerm;50936;51.660;5.616;2023-07-31T10:09:25;46.58;36.20;67.43;;
64545;Laerm;50936;51.660;5.616;2023-07-31T10:11:59;54.58;38.52;81.99;;
64545;Laerm;50936;51.660;5.616;2023-07-31T10:14:27;50.88;38.37;75.15;;
64545;Laerm;50936;51.660;5.616;2023-07-31T10:16:57;52.70;39.08;74.60;;
64545;Laerm;50936;51.660;5.616;2023-07-31T10:19:27;44.83;41.06;63.02;;
64545;Laerm;50936;51.660;5.616;2023-07-31T10:21:55;58.29;41.68;89.40;;
64545;Laerm;50936;51.660;5.616;2023-07-31T10:24:24;48.19;41.89;72.34;;
64545;Laerm;50936;51.660;5.616;2023-07-31T10:26:53;52.79;41.38;73.07;;
64545;Laerm;50936;51.660;5.616;2023-07-31T10:29:21;51.09;41.22;73.41;;
64545;Laerm;50936;51.660;5.616;2023-07-31T10:31:50;50.76;41.22;75.62;;
64545;Laerm;50936;51.660;5.616;2023-07-31T10:34:18;47.95;42.09;67.72;;
64545;Laerm;50936;51.660;5.616;2023-07-31T10:36:45;49.45;43.14;72.12;;
64545;Laerm;50936;51.660;5.616;2023-07-31T10:39:35;47.47;42.29;71.17;;
64545;Laerm;50936;51.660;5.616;2023-07-31T10:42:13;46.48;41.96;62.30;;
64545;Laerm;50936;51.660;5.616;2023-07-31T10:44:46;46.14;41.89;62.80;;
64545;Laerm;50936;51.660;5.616;2023-07-31T10:47:17;47.73;41.89;72.45;;
64545;Laerm;50936;51.660;5.616;2023-07-31T10:49:45;46.26;41.68;62.17;;
64545;Laerm;50936;51.660;5.616;2023-07-31T10:52:14;46.02;41.82;65.71;;
64545;Laerm;50936;51.660;5.616;2023-07-31T10:54:45;55.47;41.68;72.96;;
64545;Laerm;50936;51.660;5.616;2023-07-31T10:57:22;54.11;39.70;76.57;;
64545;Laerm;50936;51.660;5.616;2023-07-31T10:59:50;49.19;39.46;74.21;;
64545;Laerm;50936;51.660;5.616;2023-07-31T11:02:27;51.53;38.21;75.96;;
64545;Laerm;50936;51.660;5.616;2023-07-31T11:05:08;50.15;37.88;71.00;;
64545;Laerm;50936;51.660;5.616;2023-07-31T11:07:49;56.08;38.37;80.21;;
64545;Laerm;50936;51.660;5.616;2023-07-31T11:10:18;47.36;38.99;67.55;;
64545;Laerm;50936;51.660;5.616;2023-07-31T11:12:46;53.53;40.71;77.96;;
64545;Laerm;50936;51.660;5.616;2023-07-31T11:15:13;55.65;40.71;78.29;;
64545;Laerm;50936;51.660;5.616;2023-07-31T11:17:40;60.41;40.23;81.21;;
64545;Laerm;50936;51.660;5.616;2023-07-31T11:20:08;60.78;40.23;91.34;;
64545;Laerm;50936;51.660;5.616;2023-07-31T11:22:36;50.32;39.34;72.01;;
64545;Laerm;50936;51.660;5.616;2023-07-31T11:25:03;47.83;40.23;66.59;;
64545;Laerm;50936;51.660;5.616;2023-07-31T11:27:31;55.50;40.03;77.14;;
64545;Laerm;50936;51.660;5.616;2023-07-31T11:30:02;47.15;39.34;67.39;;
64545;Laerm;50936;51.660;5.616;2023-07-31T11:32:30;58.99;39.08;88.95;;
64545;Laerm;50936;51.660;5.616;2023-07-31T11:34:56;52.49;39.46;77.21;;
64545;Laerm;50936;51.660;5.616;2023-07-31T11:37:24;56.23;39.70;83.34;;
64545;Laerm;50936;51.660;5.616;2023-07-31T11:40:01;54.69;39.21;79.47;;
64545;Laerm;50936;51.660;5.616;2023-07-31T11:42:28;49.59;40.98;70.37;;
64545;Laerm;50936;51.660;5.616;2023-07-31T11:44:55;45.31;39.46;54.44;;
64545;Laerm;50936;51.660;5.616;2023-07-31T11:47:22;45.48;40.71;57.85;;
64545;Laerm;50936;51.660;5.616;2023-07-31T11:49:49;48.65;36.69;68.66;;
64545;Laerm;50936;51.660;5.616;2023-07-31T11:52:18;49.65;40.23;71.20;;
64545;Laerm;50936;51.660;5.616;2023-07-31T11:54:47;55.17;40.89;76.60;;
64545;Laerm;50936;51.660;5.616;2023-07-31T11:57:15;54.36;40.62;79.04;;
64545;Laerm;50936;51.660;5.616;2023-07-31T11:59:43;58.36;39.21;84.05;;
64545;Laerm;50936;51.660;5.616;2023-07-31T12:02:10;61.68;38.05;85.74;;
64545;Laerm;50936;51.660;5.616;2023-07-31T12:04:37;49.99;39.58;75.21;;
64545;Laerm;50936;51.660;5.616;2023-07-31T12:07:05;52.22;40.33;76.06;;
64545;Laerm;50936;51.660;5.616;2023-07-31T12:09:32;50.24;38.95;71.37;;
64545;Laerm;50936;51.660;5.616;2023-07-31T12:11:59;52.04;40.13;76.61;;
64545;Laerm;50936;51.660;5.616;2023-07-31T12:14:28;47.41;39.08;68.80;;
64545;Laerm;50936;51.660;5.616;2023-07-31T12:17:01;45.06;40.33;58.75;;
64545;Laerm;50936;51.660;5.616;2023-07-31T12:19:31;45.09;40.62;67.17;;
64545;Laerm;50936;51.660;5.616;2023-07-31T12:22:01;47.30;40.03;71.25;;
64545;Laerm;50936;51.660;5.616;2023-07-31T12:24:28;52.19;39.34;76.82;;
64545;Laerm;50936;51.660;5.616;2023-07-31T12:26:55;44.06;39.46;49.67;;
64545;Laerm;50936;51.660;5.616;2023-07-31T12:29:22;46.99;38.52;70.10;;
64545;Laerm;50936;51.660;5.616;2023-07-31T12:31:49;47.75;38.87;69.24;;
64545;Laerm;50936;51.660;5.616;2023-07-31T12:34:18;48.56;38.67;72.93;;
64545;Laerm;50936;51.660;5.616;2023-07-31T12:36:47;44.21;39.21;52.28;;
64545;Laerm;50936;51.660;5.616;2023-07-31T12:39:17;44.65;38.81;52.52;;
64545;Laerm;50936;51.660;5.616;2023-07-31T12:41:44;44.33;40.43;52.44;;
64545;Laerm;50936;51.660;5.616;2023-07-31T12:44:11;44.31;40.03;50.83;;
64545;Laerm;50936;51.660;5.616;2023-07-31T12:46:38;47.57;38.95;72.79;;
64545;Laerm;50936;51.660;5.616;2023-07-31T12:49:06;45.56;39.81;68.44;;
64545;Laerm;50936;51.660;5.616;2023-07-31T12:51:32;54.71;40.43;76.92;;
64545;Laerm;50936;51.660;5.616;2023-07-31T12:53:59;50.38;41.61;70.02;;
64545;Laerm;50936;51.660;5.616;2023-07-31T12:56:26;45.59;40.71;62.69;;
64545;Laerm;50936;51.660;5.616;2023-07-31T12:58:53;46.18;38.05;58.37;;
64545;Laerm;50936;51.660;5.616;2023-07-31T13:01:20;45.65;39.70;57.35;;
64545;Laerm;50936;51.660;5.616;2023-07-31T13:03:47;46.55;39.92;70.14;;
64545;Laerm;50936;51.660;5.616;2023-07-31T13:06:14;44.97;40.43;55.03;;
64545;Laerm;50936;51.660;5.616;2023-07-31T13:08:41;58.45;40.62;85.65;;
64545;Laerm;50936;51.660;5.616;2023-07-31T13:11:08;46.52;40.80;69.46;;
64545;Laerm;50936;51.660;5.616;2023-07-31T13:13:35;59.44;40.43;78.35;;
64545;Laerm;50936;51.660;5.616;2023-07-31T13:16:02;54.52;38.21;74.61;;
64545;Laerm;50936;51.660;5.616;2023-07-31T13:18:29;52.31;38.99;70.41;;
64545;Laerm;50936;51.660;5.616;2023-07-31T13:20:56;51.54;38.67;73.85;;
64545;Laerm;50936;51.660;5.616;2023-07-31T13:23:23;52.60;37.70;76.62;;
64545;Laerm;50936;51.660;5.616;2023-07-31T13:25:50;51.67;38.81;69.60;;
64545;Laerm;50936;51.660;5.616;2023-07-31T13:28:17;52.94;38.95;68.35;;
64545;Laerm;50936;51.660;5.616;2023-07-31T13:30:44;52.88;39.58;69.88;;
64545;Laerm;50936;51.660;5.616;2023-07-31T13:33:11;57.07;38.52;71.90;;
64545;Laerm;50936;51.660;5.616;2023-07-31T13:35:55;56.01;38.37;72.69;;
64545;Laerm;50936;51.660;5.616;2023-07-31T13:38:22;56.74;38.52;74.46;;
64545;Laerm;50936;51.660;5.616;2023-07-31T13:40:49;58.70;38.67;72.98;;
64545;Laerm;50936;51.660;5.616;2023-07-31T13:43:16;59.04;38.95;75.35;;
64545;Laerm;50936;51.660;5.616;2023-07-31T13:45:43;57.87;38.37;71.26;;
64545;Laerm;50936;51.660;5.616;2023-07-31T13:48:10;59.17;38.21;74.05;;
64545;Laerm;50936;51.660;5.616;2023-07-31T13:50:37;55.98;39.08;71.41;;
64545;Laerm;50936;51.660;5.616;2023-07-31T13:53:03;54.82;37.88;68.44;;
64545;Laerm;50936;51.660;5.616;2023-07-31T13:55:30;52.20;39.08;66.21;;
64545;Laerm;50936;51.660;5.616;2023-07-31T13:57:57;51.89;38.52;69.02;;